createdAt,value
2023-04-09T00:01:10.413Z,50.72
2023-04-09T00:03:39.397Z,50.87
2023-04-09T00:06:07.602Z,50.43
2023-04-09T00:08:36.048Z,50.16
2023-04-09T00:11:03.668Z,50.50
2023-04-09T00:13:39.191Z,50.35
2023-04-09T00:16:08.730Z,49.89
2023-04-09T00:18:36.455Z,49.53
2023-04-09T00:21:04.069Z,49.17
2023-04-09T00:23:31.783Z,49.66
2023-04-09T00:26:00.450Z,49.37
2023-04-09T00:28:27.903Z,48.96
2023-04-09T00:30:55.401Z,49.14
2023-04-09T00:33:22.549Z,50.05
2023-04-09T00:35:49.674Z,49.81
2023-04-09T00:38:17.026Z,49.52
2023-04-09T00:40:44.541Z,49.46
2023-04-09T00:43:12.056Z,50.34
2023-04-09T00:45:39.244Z,50.38
2023-04-09T00:48:18.188Z,50.68
2023-04-09T00:50:45.478Z,50.61
2023-04-09T00:53:14.498Z,51.29
2023-04-09T00:55:46.281Z,51.29
2023-04-09T00:58:14.623Z,50.83
2023-04-09T01:00:42.060Z,51.24
2023-04-09T01:03:09.481Z,51.25
2023-04-09T01:06:08.748Z,50.57
2023-04-09T01:08:44.670Z,51.08
2023-04-09T01:11:49.469Z,51.56
2023-04-09T01:14:46.002Z,51.85
2023-04-09T01:17:54.555Z,52.06
2023-04-09T01:20:40.585Z,52.26
2023-04-09T01:23:10.781Z,51.86
2023-04-09T01:26:07.852Z,51.48
2023-04-09T01:28:49.728Z,50.71
2023-04-09T01:31:24.147Z,50.82
2023-04-09T01:33:52.782Z,50.67
2023-04-09T01:36:21.735Z,50.69
2023-04-09T01:38:52.557Z,50.49
2023-04-09T01:41:23.212Z,51.46
2023-04-09T01:43:52.255Z,51.71
2023-04-09T01:46:25.297Z,51.59
2023-04-09T01:48:54.306Z,51.70
2023-04-09T01:51:21.934Z,50.87
2023-04-09T01:53:52.034Z,51.01
2023-04-09T01:56:21.318Z,50.98
2023-04-09T01:58:48.818Z,51.76
2023-04-09T02:01:52.129Z,52.18
2023-04-09T02:04:27.946Z,52.52
2023-04-09T02:07:32.221Z,51.16
2023-04-09T02:10:01.455Z,51.38
2023-04-09T02:12:33.908Z,51.25
2023-04-09T02:15:02.869Z,51.55
2023-04-09T02:17:30.242Z,51.75
2023-04-09T02:19:57.920Z,52.14
2023-04-09T02:22:25.014Z,52.84
2023-04-09T02:24:52.202Z,53.22
2023-04-09T02:27:19.446Z,53.57
2023-04-09T02:29:46.759Z,54.96
2023-04-09T02:32:13.918Z,54.22
2023-04-09T02:34:41.119Z,54.21
2023-04-09T02:37:08.271Z,54.96
2023-04-09T02:39:35.745Z,54.51
2023-04-09T02:42:02.950Z,53.54
2023-04-09T02:44:30.056Z,53.27
2023-04-09T02:46:57.836Z,52.79
2023-04-09T02:49:25.336Z,53.05
2023-04-09T02:51:52.492Z,52.64
2023-04-09T02:54:20.284Z,52.69
2023-04-09T02:56:48.700Z,53.49
2023-04-09T02:59:16.201Z,54.38
2023-04-09T03:01:43.521Z,55.36
2023-04-09T03:04:11.027Z,55.58
2023-04-09T03:06:38.711Z,54.39
2023-04-09T03:09:07.128Z,54.39
2023-04-09T03:11:34.507Z,54.17
2023-04-09T03:14:01.836Z,53.97
2023-04-09T03:16:28.957Z,52.26
2023-04-09T03:18:56.582Z,52.56
2023-04-09T03:21:24.915Z,52.76
2023-04-09T03:23:52.232Z,53.25
2023-04-09T03:26:19.784Z,53.47
2023-04-09T03:28:50.283Z,52.57
2023-04-09T03:31:17.829Z,53.31
2023-04-09T03:33:46.268Z,53.76
2023-04-09T03:36:14.387Z,53.99
2023-04-09T03:38:57.515Z,54.71
2023-04-09T03:41:44.890Z,55.87
2023-04-09T03:44:15.674Z,54.85
2023-04-09T03:46:59.808Z,56.09
2023-04-09T03:49:28.619Z,56.61
2023-04-09T03:51:59.516Z,56.67
2023-04-09T03:54:35.657Z,56.30
2023-04-09T03:57:06.766Z,56.22
2023-04-09T03:59:38.370Z,55.53
2023-04-09T04:02:05.766Z,55.52
2023-04-09T04:04:36.147Z,55.82
2023-04-09T04:07:08.713Z,55.14
2023-04-09T04:09:40.870Z,55.33
2023-04-09T04:12:12.032Z,54.91
2023-04-09T04:14:59.455Z,54.41
2023-04-09T04:17:33.623Z,54.59
2023-04-09T04:20:03.159Z,54.63
2023-04-09T04:22:35.822Z,54.91
2023-04-09T04:25:05.526Z,55.18
2023-04-09T04:27:32.679Z,56.69
2023-04-09T04:30:01.949Z,57.02
2023-04-09T04:32:51.361Z,57.17
2023-04-09T04:35:19.276Z,57.32
2023-04-09T04:37:51.362Z,56.86
2023-04-09T04:40:19.194Z,55.90
2023-04-09T04:42:47.992Z,55.79
2023-04-09T04:45:16.512Z,56.15
2023-04-09T04:47:51.403Z,56.20
2023-04-09T04:50:19.003Z,55.88
2023-04-09T04:53:01.030Z,56.14
2023-04-09T04:55:36.532Z,55.67
2023-04-09T04:58:05.946Z,55.19
2023-04-09T05:00:42.585Z,55.27
2023-04-09T05:03:09.903Z,54.98
2023-04-09T05:05:46.412Z,54.80
2023-04-09T05:08:14.505Z,54.69
2023-04-09T05:10:46.803Z,55.29
2023-04-09T05:13:14.290Z,54.78
2023-04-09T05:15:41.923Z,55.41
2023-04-09T05:18:10.342Z,54.71
2023-04-09T05:20:40.438Z,54.18
2023-04-09T05:23:12.567Z,52.67
2023-04-09T05:25:50.336Z,48.17
2023-04-09T05:28:28.149Z,42.68
2023-04-09T05:31:11.898Z,39.66
2023-04-09T05:33:45.440Z,37.20
2023-04-09T05:36:19.646Z,35.14
2023-04-09T05:38:48.214Z,33.52
2023-04-09T05:41:16.160Z,32.12
2023-04-09T05:44:00.820Z,31.02
2023-04-09T05:46:29.675Z,28.85
2023-04-09T05:48:57.378Z,27.89
2023-04-09T05:51:27.337Z,26.26
2023-04-09T05:53:56.685Z,24.58
2023-04-09T05:56:24.528Z,23.36
2023-04-09T05:58:55.878Z,23.81
2023-04-09T06:01:23.395Z,23.34
2023-04-09T06:03:57.830Z,23.67
2023-04-09T06:06:27.101Z,23.56
2023-04-09T06:08:54.762Z,23.17
2023-04-09T06:11:22.906Z,22.99
2023-04-09T06:13:50.372Z,22.77
2023-04-09T06:16:18.100Z,22.84
2023-04-09T06:18:46.814Z,21.75
2023-04-09T06:21:14.856Z,20.85
2023-04-09T06:23:43.118Z,21.42
2023-04-09T06:26:12.040Z,21.66
2023-04-09T06:28:39.685Z,21.12
2023-04-09T06:31:07.602Z,21.01
2023-04-09T06:33:34.691Z,20.15
2023-04-09T06:36:02.129Z,20.70
2023-04-09T06:38:29.706Z,22.97
2023-04-09T06:40:57.745Z,22.94
2023-04-09T06:43:24.821Z,22.29
2023-04-09T06:45:53.839Z,21.70
2023-04-09T06:48:21.205Z,20.73
2023-04-09T06:50:49.032Z,19.12
2023-04-09T06:53:17.706Z,18.24
2023-04-09T06:55:48.232Z,17.62
2023-04-09T06:58:16.709Z,17.30
2023-04-09T07:00:43.939Z,17.96
2023-04-09T07:03:11.479Z,17.29
2023-04-09T07:05:39.365Z,16.72
2023-04-09T07:08:07.471Z,17.46
2023-04-09T07:10:36.119Z,17.03
2023-04-09T07:13:03.542Z,16.01
2023-04-09T07:15:30.959Z,14.75
2023-04-09T07:17:58.307Z,14.84
2023-04-09T07:20:26.159Z,15.04
2023-04-09T07:22:53.562Z,14.13
2023-04-09T07:25:22.166Z,15.96
2023-04-09T07:27:49.893Z,16.14
2023-04-09T07:30:18.021Z,17.29
2023-04-09T07:32:46.200Z,17.65
2023-04-09T07:35:14.151Z,18.44
2023-04-09T07:37:41.792Z,20.13
2023-04-09T07:40:09.537Z,21.99
2023-04-09T07:42:40.693Z,22.91
2023-04-09T07:45:08.955Z,22.14
2023-04-09T07:47:36.188Z,22.21
2023-04-09T07:50:03.623Z,22.82
2023-04-09T07:52:31.008Z,23.48
2023-04-09T07:54:58.287Z,21.85
2023-04-09T07:57:26.474Z,21.63
2023-04-09T07:59:54.295Z,21.69
2023-04-09T08:02:23.136Z,23.11
2023-04-09T08:04:51.254Z,22.48
2023-04-09T08:07:18.770Z,20.59
2023-04-09T08:09:46.138Z,18.77
2023-04-09T08:12:13.623Z,18.09
2023-04-09T08:14:41.699Z,18.79
2023-04-09T08:17:08.982Z,17.70
2023-04-09T08:19:36.551Z,16.75
2023-04-09T08:22:03.962Z,16.38
2023-04-09T08:24:31.215Z,16.97
2023-04-09T08:26:58.757Z,18.65
2023-04-09T08:29:27.538Z,18.40
2023-04-09T08:31:54.848Z,18.08
2023-04-09T08:34:23.004Z,17.72
2023-04-09T08:36:50.694Z,17.36
2023-04-09T08:39:21.711Z,15.90
2023-04-09T08:41:51.759Z,14.99
2023-04-09T08:44:19.093Z,14.47
2023-04-09T08:46:46.274Z,15.08
2023-04-09T08:49:14.439Z,16.68
2023-04-09T08:51:51.800Z,14.93
2023-04-09T08:54:26.970Z,15.27
2023-04-09T08:56:54.366Z,18.46
2023-04-09T08:59:21.681Z,20.88
2023-04-09T09:01:54.107Z,19.47
2023-04-09T09:04:22.014Z,20.94
2023-04-09T09:06:49.790Z,19.75
2023-04-09T09:09:18.932Z,17.78
2023-04-09T09:11:50.163Z,20.27
2023-04-09T09:14:20.154Z,18.45
2023-04-09T09:16:56.676Z,16.62
2023-04-09T09:19:27.521Z,15.46
2023-04-09T09:22:03.328Z,16.17
2023-04-09T09:24:35.217Z,17.16
2023-04-09T09:27:03.105Z,15.01
2023-04-09T09:29:30.434Z,14.36
2023-04-09T09:31:57.640Z,14.64
2023-04-09T09:34:26.083Z,15.25
2023-04-09T09:36:54.147Z,16.34
2023-04-09T09:39:22.199Z,16.32
2023-04-09T09:42:08.451Z,15.11
2023-04-09T09:44:35.851Z,13.27
2023-04-09T09:47:04.979Z,13.82
2023-04-09T09:49:33.125Z,13.90
2023-04-09T09:52:05.483Z,13.36
2023-04-09T09:54:43.819Z,12.94
2023-04-09T09:57:14.872Z,12.33
2023-04-09T09:59:52.257Z,12.46
2023-04-09T10:02:24.340Z,12.13
2023-04-09T10:04:52.614Z,10.90
2023-04-09T10:07:22.371Z,10.85
2023-04-09T10:09:53.201Z,11.96
2023-04-09T10:12:26.270Z,13.71
2023-04-09T10:14:56.577Z,15.43
2023-04-09T10:17:23.843Z,15.16
2023-04-09T10:20:19.949Z,15.29
2023-04-09T10:22:51.022Z,15.83
2023-04-09T10:25:22.854Z,15.56
2023-04-09T10:28:02.222Z,14.63
2023-04-09T10:30:37.373Z,15.49
2023-04-09T10:33:16.680Z,18.57
2023-04-09T10:35:47.583Z,20.56
2023-04-09T10:40:51.525Z,21.03
2023-04-09T10:43:21.018Z,22.44
2023-04-09T10:45:53.582Z,22.31
2023-04-09T10:48:26.083Z,20.81
2023-04-09T10:50:55.893Z,21.30
2023-04-09T10:53:26.083Z,20.43
2023-04-09T10:55:55.456Z,23.19
2023-04-09T10:58:23.276Z,22.95
2023-04-09T11:00:51.849Z,23.23
2023-04-09T11:03:32.504Z,25.04
2023-04-09T11:06:10.606Z,23.66
2023-04-09T11:08:39.098Z,20.56
2023-04-09T11:11:06.798Z,17.17
2023-04-09T11:13:34.581Z,17.74
2023-04-09T11:16:06.753Z,19.40
2023-04-09T11:18:35.534Z,18.95
2023-04-09T11:21:04.903Z,17.00
2023-04-09T11:23:33.852Z,16.35
2023-04-09T11:26:02.371Z,15.14
2023-04-09T11:28:29.683Z,13.68
2023-04-09T11:30:56.906Z,13.17
2023-04-09T11:33:33.129Z,14.19
2023-04-09T11:36:00.406Z,14.88
2023-04-09T11:38:27.595Z,15.89
2023-04-09T11:40:58.306Z,15.75
2023-04-09T11:43:25.753Z,16.66
2023-04-09T11:45:54.845Z,17.02
2023-04-09T11:48:24.806Z,16.44
2023-04-09T11:50:52.593Z,16.72
2023-04-09T11:53:22.137Z,15.56
2023-04-09T11:55:53.264Z,15.03
2023-04-09T11:58:26.236Z,13.74
2023-04-09T12:01:00.494Z,14.13
2023-04-09T12:03:36.846Z,15.59
2023-04-09T12:06:07.067Z,14.86
2023-04-09T12:08:37.270Z,14.33
2023-04-09T12:11:16.266Z,14.30
2023-04-09T12:13:44.601Z,16.28
2023-04-09T12:16:21.125Z,16.33
2023-04-09T12:18:50.591Z,16.83
2023-04-09T12:21:19.321Z,17.15
2023-04-09T12:23:46.660Z,16.59
2023-04-09T12:26:14.686Z,16.29
2023-04-09T12:28:42.026Z,15.88
2023-04-09T12:31:12.648Z,14.71
2023-04-09T12:33:40.291Z,13.85
2023-04-09T12:36:07.839Z,13.35
2023-04-09T12:38:35.060Z,13.13
2023-04-09T12:41:02.448Z,13.71
2023-04-09T12:43:29.933Z,13.36
2023-04-09T12:45:58.086Z,13.09
2023-04-09T12:48:25.582Z,13.69
2023-04-09T12:50:53.259Z,13.76
2023-04-09T12:53:20.969Z,13.41
2023-04-09T12:55:51.011Z,14.17
2023-04-09T12:58:18.474Z,13.83
2023-04-09T13:00:46.411Z,14.70
2023-04-09T13:03:17.092Z,13.28
2023-04-09T13:05:45.038Z,14.24
2023-04-09T13:08:12.930Z,13.39
2023-04-09T13:10:40.190Z,13.95
2023-04-09T13:13:12.616Z,14.37
2023-04-09T13:15:43.579Z,14.65
2023-04-09T13:18:12.794Z,13.84
2023-04-09T13:20:40.527Z,16.03
2023-04-09T13:23:07.937Z,14.70
2023-04-09T13:25:35.410Z,16.13
2023-04-09T13:28:02.781Z,15.75
2023-04-09T13:30:30.025Z,15.74
2023-04-09T13:32:57.428Z,14.75
2023-04-09T13:35:25.162Z,15.55
2023-04-09T13:37:52.470Z,15.75
2023-04-09T13:40:20.460Z,15.45
2023-04-09T13:42:47.983Z,15.36
2023-04-09T13:45:15.627Z,15.67
2023-04-09T13:47:43.301Z,16.73
2023-04-09T13:50:11.908Z,17.63
2023-04-09T13:52:39.165Z,18.38
2023-04-09T13:55:07.951Z,19.17
2023-04-09T13:57:35.724Z,18.23
2023-04-09T14:00:04.998Z,19.07
2023-04-09T14:02:33.032Z,18.82
2023-04-09T14:05:02.601Z,19.36
2023-04-09T14:07:31.029Z,18.52
2023-04-09T14:09:58.743Z,19.79
2023-04-09T14:12:26.404Z,20.05
2023-04-09T14:14:53.753Z,21.37
2023-04-09T14:17:20.974Z,22.17
2023-04-09T14:19:48.320Z,22.51
2023-04-09T14:22:15.802Z,23.06
2023-04-09T14:24:43.073Z,23.24
2023-04-09T14:27:10.818Z,24.49
2023-04-09T14:29:38.557Z,24.00
2023-04-09T14:32:06.157Z,24.01
2023-04-09T14:34:34.096Z,23.14
2023-04-09T14:37:01.398Z,23.92
2023-04-09T14:39:28.899Z,23.35
2023-04-09T14:41:57.264Z,23.80
2023-04-09T14:44:27.575Z,24.16
2023-04-09T14:46:56.274Z,24.40
2023-04-09T14:49:24.178Z,24.53
2023-04-09T14:51:51.317Z,24.22
2023-04-09T14:54:18.438Z,23.30
2023-04-09T14:56:46.263Z,22.27
2023-04-09T14:59:13.932Z,23.40
2023-04-09T15:01:41.364Z,22.38
2023-04-09T15:04:08.913Z,21.78
2023-04-09T15:06:36.262Z,21.88
2023-04-09T15:09:03.672Z,21.55
2023-04-09T15:11:31.363Z,22.76
2023-04-09T15:13:58.576Z,23.14
2023-04-09T15:16:28.542Z,24.10
2023-04-09T15:18:58.583Z,23.67
2023-04-09T15:21:27.146Z,25.12
2023-04-09T15:23:54.854Z,25.38
2023-04-09T15:26:22.783Z,25.83
2023-04-09T15:28:51.363Z,25.18
2023-04-09T15:31:19.417Z,24.35
2023-04-09T15:33:47.004Z,24.34
2023-04-09T15:36:14.319Z,23.24
2023-04-09T15:38:45.684Z,22.81
2023-04-09T15:41:13.366Z,24.21
2023-04-09T15:43:40.457Z,23.88
2023-04-09T15:46:10.828Z,24.56
2023-04-09T15:48:38.528Z,24.58
2023-04-09T15:51:06.735Z,24.81
2023-04-09T15:53:34.724Z,25.10
2023-04-09T15:56:04.263Z,25.06
2023-04-09T15:58:32.406Z,25.22
2023-04-09T16:00:59.760Z,25.29
2023-04-09T16:03:27.771Z,23.92
2023-04-09T16:05:55.390Z,23.72
2023-04-09T16:08:22.986Z,23.56
2023-04-09T16:10:50.560Z,23.39
2023-04-09T16:13:17.715Z,23.23
2023-04-09T16:15:46.696Z,22.63
2023-04-09T16:18:14.042Z,22.68
2023-04-09T16:20:41.241Z,23.01
2023-04-09T16:23:08.727Z,23.01
2023-04-09T16:25:36.810Z,23.88
2023-04-09T16:28:04.837Z,24.73
2023-04-09T16:30:32.029Z,25.04
2023-04-09T16:32:59.247Z,24.51
2023-04-09T16:35:26.535Z,23.97
2023-04-09T16:37:53.695Z,24.75
2023-04-09T16:40:24.293Z,24.08
2023-04-09T16:42:51.497Z,24.37
2023-04-09T16:45:18.859Z,24.73
2023-04-09T16:47:50.827Z,24.76
2023-04-09T16:50:21.839Z,24.78
2023-04-09T16:52:49.435Z,25.50
2023-04-09T16:55:16.752Z,25.20
2023-04-09T16:57:43.937Z,24.94
2023-04-09T17:00:12.853Z,25.93
2023-04-09T17:02:40.075Z,26.26
2023-04-09T17:05:32.690Z,26.66
2023-04-09T17:08:01.885Z,26.19
2023-04-09T17:10:29.319Z,26.59
2023-04-09T17:12:56.533Z,26.96
2023-04-09T17:15:25.116Z,27.10
2023-04-09T17:17:53.617Z,26.97
2023-04-09T17:20:22.839Z,27.06
2023-04-09T17:22:51.009Z,27.57
2023-04-09T17:25:22.745Z,27.83
2023-04-09T17:27:50.586Z,28.21
2023-04-09T17:30:18.231Z,28.62
2023-04-09T17:32:46.135Z,28.66
2023-04-09T17:35:13.677Z,28.55
2023-04-09T17:37:40.896Z,28.43
2023-04-09T17:40:09.598Z,28.30
2023-04-09T17:42:36.844Z,28.48
2023-04-09T17:45:04.689Z,28.87
2023-04-09T17:47:31.984Z,29.04
2023-04-09T17:50:00.180Z,29.12
2023-04-09T17:52:27.726Z,29.35
2023-04-09T17:54:55.489Z,29.52
2023-04-09T17:57:22.615Z,29.82
2023-04-09T17:59:49.915Z,29.70
2023-04-09T18:02:18.071Z,29.50
2023-04-09T18:04:45.870Z,30.55
2023-04-09T18:07:13.532Z,29.86
2023-04-09T18:09:40.810Z,29.92
2023-04-09T18:12:08.505Z,29.79
2023-04-09T18:14:36.231Z,30.17
2023-04-09T18:17:03.487Z,30.34
2023-04-09T18:19:31.492Z,30.29
2023-04-09T18:21:58.872Z,30.52
2023-04-09T18:24:26.780Z,30.58
2023-04-09T18:26:54.046Z,31.31
2023-04-09T18:29:21.165Z,31.09
2023-04-09T18:31:48.370Z,31.36
2023-04-09T18:34:17.079Z,31.23
2023-04-09T18:36:44.876Z,31.97
2023-04-09T18:39:12.438Z,31.57
2023-04-09T18:41:39.910Z,32.14
2023-04-09T18:44:07.257Z,31.92
2023-04-09T18:46:35.654Z,32.48
2023-04-09T18:49:04.032Z,32.84
2023-04-09T18:51:31.956Z,32.97
2023-04-09T18:54:00.625Z,33.08
2023-04-09T18:56:29.013Z,33.50
2023-04-09T18:58:56.630Z,34.01
2023-04-09T19:01:25.277Z,34.23
2023-04-09T19:03:54.722Z,34.50
2023-04-09T19:06:22.241Z,35.51
2023-04-09T19:08:57.878Z,35.64
2023-04-09T19:11:26.449Z,35.78
2023-04-09T19:13:54.051Z,36.98
2023-04-09T19:16:21.683Z,36.29
2023-04-09T19:18:48.922Z,36.99
2023-04-09T19:21:17.860Z,36.83
2023-04-09T19:23:45.696Z,37.26
2023-04-09T19:26:12.912Z,36.13
2023-04-09T19:28:40.343Z,35.57
2023-04-09T19:31:08.567Z,36.50
2023-04-09T19:33:36.126Z,36.60
2023-04-09T19:36:04.304Z,37.55
2023-04-09T19:38:31.639Z,37.25
2023-04-09T19:40:58.927Z,37.37
2023-04-09T19:43:26.499Z,37.94
2023-04-09T19:45:54.950Z,37.69
2023-04-09T19:48:23.082Z,38.28
2023-04-09T19:50:50.232Z,38.81
2023-04-09T19:53:20.120Z,38.91
2023-04-09T19:55:54.021Z,39.11
2023-04-09T19:58:21.364Z,38.76
2023-04-09T20:00:48.550Z,38.30
2023-04-09T20:03:15.924Z,38.22
2023-04-09T20:05:43.214Z,38.09
2023-04-09T20:08:14.380Z,38.58
2023-04-09T20:10:46.262Z,38.68
2023-04-09T20:13:13.906Z,38.57
2023-04-09T20:15:41.632Z,39.21
2023-04-09T20:18:08.833Z,39.66
2023-04-09T20:20:36.061Z,40.25
2023-04-09T20:23:03.290Z,40.63
2023-04-09T20:25:34.663Z,41.14
2023-04-09T20:28:03.294Z,41.50
2023-04-09T20:30:32.078Z,41.54
2023-04-09T20:32:59.852Z,41.61
2023-04-09T20:35:27.299Z,42.16
2023-04-09T20:37:55.076Z,42.31
2023-04-09T20:40:22.532Z,43.53
2023-04-09T20:42:49.909Z,43.49
2023-04-09T20:45:17.128Z,44.69
2023-04-09T20:47:44.404Z,45.94
2023-04-09T20:50:11.875Z,46.11
2023-04-09T20:52:39.108Z,46.73
2023-04-09T20:55:06.978Z,47.23
2023-04-09T20:57:34.963Z,47.39
2023-04-09T21:00:03.250Z,47.60
2023-04-09T21:02:31.036Z,47.64
2023-04-09T21:05:05.469Z,47.26
2023-04-09T21:07:43.111Z,47.55
2023-04-09T21:10:11.031Z,47.65
2023-04-09T21:12:38.538Z,48.73
2023-04-09T21:15:06.756Z,48.91
2023-04-09T21:17:34.052Z,48.46
2023-04-09T21:20:01.597Z,48.06
2023-04-09T21:22:28.977Z,47.43
2023-04-09T21:24:56.426Z,48.09
2023-04-09T21:27:23.995Z,48.68
2023-04-09T21:29:51.406Z,48.82
2023-04-09T21:32:18.689Z,47.89
2023-04-09T21:34:46.142Z,46.63
2023-04-09T21:37:13.960Z,46.85
2023-04-09T21:39:41.717Z,46.95
2023-04-09T21:42:09.060Z,47.51
2023-04-09T21:44:36.493Z,47.76
2023-04-09T21:47:07.575Z,48.67
2023-04-09T21:49:39.711Z,48.92
2023-04-09T21:52:14.313Z,49.34
2023-04-09T21:54:43.902Z,49.67
2023-04-09T21:57:12.064Z,50.51
2023-04-09T21:59:41.121Z,51.24
2023-04-09T22:02:09.595Z,50.73
2023-04-09T22:04:37.501Z,50.35
2023-04-09T22:07:05.331Z,50.50
2023-04-09T22:09:33.396Z,51.25
2023-04-09T22:12:00.661Z,51.84
2023-04-09T22:14:29.408Z,51.53
2023-04-09T22:16:58.522Z,50.64
2023-04-09T22:19:51.773Z,52.04
2023-04-09T22:22:18.989Z,52.71
2023-04-09T22:24:46.253Z,53.03
2023-04-09T22:27:14.179Z,52.40
2023-04-09T22:29:41.523Z,51.62
2023-04-09T22:32:09.586Z,52.03
2023-04-09T22:34:37.231Z,52.51
2023-04-09T22:37:05.180Z,53.75
2023-04-09T22:39:32.956Z,53.50
2023-04-09T22:42:01.850Z,52.60
2023-04-09T22:44:29.544Z,52.91
2023-04-09T22:46:57.063Z,53.59
2023-04-09T22:49:26.011Z,53.72
2023-04-09T22:51:54.715Z,53.82
2023-04-09T22:54:25.831Z,53.75
2023-04-09T22:56:53.255Z,53.01
2023-04-09T22:59:23.005Z,52.58
2023-04-09T23:01:52.417Z,51.56
2023-04-09T23:04:24.835Z,53.03
2023-04-09T23:06:53.232Z,52.60
2023-04-09T23:09:21.181Z,53.50
2023-04-09T23:11:48.626Z,52.44
2023-04-09T23:14:16.016Z,52.63
2023-04-09T23:16:43.360Z,54.22
2023-04-09T23:19:11.365Z,54.25
2023-04-09T23:21:39.052Z,56.16
2023-04-09T23:24:06.790Z,56.61
2023-04-09T23:26:34.816Z,56.96
2023-04-09T23:29:02.387Z,56.70
2023-04-09T23:31:29.716Z,56.73
2023-04-09T23:33:56.929Z,56.67
2023-04-09T23:36:24.623Z,57.46
2023-04-09T23:38:52.617Z,57.76
2023-04-09T23:41:19.998Z,58.78
2023-04-09T23:43:47.322Z,58.34
2023-04-09T23:46:15.822Z,58.36
2023-04-09T23:48:43.516Z,58.34
2023-04-09T23:51:20.626Z,59.16
2023-04-09T23:53:47.777Z,58.20
2023-04-09T23:56:15.259Z,58.28
2023-04-09T23:58:43.181Z,58.23
